sensor_id;sensor_type;location;lat;lon;timestamp;P1;durP1;ratioP1;P2;durP2;ratioP2
46745;SDS011;32493;50.514;9.678;2022-12-05T00:00:24;43.97;;;21.00;;
46745;SDS011;32493;50.514;9.678;2022-12-05T00:02:29;37.40;;;18.65;;
46745;SDS011;32493;50.514;9.678;2022-12-05T00:04:34;44.83;;;20.48;;
46745;SDS011;32493;50.514;9.678;2022-12-05T00:06:40;45.92;;;21.15;;
46745;SDS011;32493;50.514;9.678;2022-12-05T00:08:46;40.15;;;18.55;;
46745;SDS011;32493;50.514;9.678;2022-12-05T00:10:52;39.38;;;18.10;;
46745;SDS011;32493;50.514;9.678;2022-12-05T00:12:58;36.78;;;17.60;;
46745;SDS011;32493;50.514;9.678;2022-12-05T00:15:03;37.42;;;18.20;;
46745;SDS011;32493;50.514;9.678;2022-12-05T00:17:16;39.08;;;17.88;;
46745;SDS011;32493;50.514;9.678;2022-12-05T00:19:21;41.83;;;19.50;;
46745;SDS011;32493;50.514;9.678;2022-12-05T00:21:26;37.00;;;18.83;;
46745;SDS011;32493;50.514;9.678;2022-12-05T00:23:33;42.92;;;18.50;;
46745;SDS011;32493;50.514;9.678;2022-12-05T00:25:39;43.38;;;18.50;;
46745;SDS011;32493;50.514;9.678;2022-12-05T00:27:45;40.78;;;18.27;;
46745;SDS011;32493;50.514;9.678;2022-12-05T00:29:51;43.55;;;19.35;;
46745;SDS011;32493;50.514;9.678;2022-12-05T00:31:56;41.55;;;18.65;;
46745;SDS011;32493;50.514;9.678;2022-12-05T00:34:04;39.63;;;18.13;;
46745;SDS011;32493;50.514;9.678;2022-12-05T00:36:10;40.83;;;17.30;;
46745;SDS011;32493;50.514;9.678;2022-12-05T00:38:17;38.53;;;17.17;;
46745;SDS011;32493;50.514;9.678;2022-12-05T00:40:22;41.60;;;17.48;;
46745;SDS011;32493;50.514;9.678;2022-12-05T00:42:27;38.17;;;18.33;;
46745;SDS011;32493;50.514;9.678;2022-12-05T00:44:32;40.55;;;18.02;;
46745;SDS011;32493;50.514;9.678;2022-12-05T00:46:37;42.25;;;18.75;;
46745;SDS011;32493;50.514;9.678;2022-12-05T00:48:43;44.55;;;18.95;;
46745;SDS011;32493;50.514;9.678;2022-12-05T00:50:52;44.97;;;18.40;;
46745;SDS011;32493;50.514;9.678;2022-12-05T00:53:04;40.97;;;18.33;;
46745;SDS011;32493;50.514;9.678;2022-12-05T00:55:10;45.03;;;17.85;;
46745;SDS011;32493;50.514;9.678;2022-12-05T00:57:15;46.60;;;19.02;;
46745;SDS011;32493;50.514;9.678;2022-12-05T00:59:20;42.50;;;18.08;;
46745;SDS011;32493;50.514;9.678;2022-12-05T01:01:27;38.22;;;17.85;;
46745;SDS011;32493;50.514;9.678;2022-12-05T01:03:34;48.47;;;18.80;;
46745;SDS011;32493;50.514;9.678;2022-12-05T01:05:39;44.70;;;19.15;;
46745;SDS011;32493;50.514;9.678;2022-12-05T01:07:47;50.17;;;19.25;;
46745;SDS011;32493;50.514;9.678;2022-12-05T01:09:52;45.22;;;18.67;;
46745;SDS011;32493;50.514;9.678;2022-12-05T01:11:59;44.28;;;18.10;;
46745;SDS011;32493;50.514;9.678;2022-12-05T01:14:04;40.97;;;18.13;;
46745;SDS011;32493;50.514;9.678;2022-12-05T01:16:12;38.97;;;17.48;;
46745;SDS011;32493;50.514;9.678;2022-12-05T01:18:19;46.42;;;18.30;;
46745;SDS011;32493;50.514;9.678;2022-12-05T01:20:25;44.55;;;17.73;;
46745;SDS011;32493;50.514;9.678;2022-12-05T01:22:30;47.22;;;18.27;;
46745;SDS011;32493;50.514;9.678;2022-12-05T01:24:39;53.67;;;19.25;;
46745;SDS011;32493;50.514;9.678;2022-12-05T01:26:44;46.50;;;18.13;;
46745;SDS011;32493;50.514;9.678;2022-12-05T01:28:50;52.92;;;18.90;;
46745;SDS011;32493;50.514;9.678;2022-12-05T01:30:55;48.58;;;18.23;;
46745;SDS011;32493;50.514;9.678;2022-12-05T01:33:01;56.72;;;19.30;;
46745;SDS011;32493;50.514;9.678;2022-12-05T01:35:06;44.40;;;18.48;;
46745;SDS011;32493;50.514;9.678;2022-12-05T01:37:12;54.58;;;18.13;;
46745;SDS011;32493;50.514;9.678;2022-12-05T01:39:18;45.15;;;17.63;;
46745;SDS011;32493;50.514;9.678;2022-12-05T01:41:28;63.70;;;18.30;;
46745;SDS011;32493;50.514;9.678;2022-12-05T01:46:01;52.35;;;18.48;;
46745;SDS011;32493;50.514;9.678;2022-12-05T01:48:06;40.53;;;18.15;;
46745;SDS011;32493;50.514;9.678;2022-12-05T01:50:17;42.30;;;17.45;;
46745;SDS011;32493;50.514;9.678;2022-12-05T01:52:24;48.22;;;18.08;;
46745;SDS011;32493;50.514;9.678;2022-12-05T01:54:33;44.08;;;17.80;;
46745;SDS011;32493;50.514;9.678;2022-12-05T01:56:43;42.08;;;17.83;;
46745;SDS011;32493;50.514;9.678;2022-12-05T01:58:53;51.28;;;18.27;;
46745;SDS011;32493;50.514;9.678;2022-12-05T02:01:00;69.03;;;18.58;;
46745;SDS011;32493;50.514;9.678;2022-12-05T02:03:07;52.85;;;18.35;;
46745;SDS011;32493;50.514;9.678;2022-12-05T02:05:17;45.97;;;18.55;;
46745;SDS011;32493;50.514;9.678;2022-12-05T02:07:28;41.60;;;17.42;;
46745;SDS011;32493;50.514;9.678;2022-12-05T02:09:33;48.33;;;18.40;;
46745;SDS011;32493;50.514;9.678;2022-12-05T02:11:44;49.50;;;18.33;;
46745;SDS011;32493;50.514;9.678;2022-12-05T02:13:58;43.83;;;16.50;;
46745;SDS011;32493;50.514;9.678;2022-12-05T02:16:18;44.05;;;17.25;;
46745;SDS011;32493;50.514;9.678;2022-12-05T02:18:37;37.00;;;16.02;;
46745;SDS011;32493;50.514;9.678;2022-12-05T02:26:28;42.50;;;17.00;;
46745;SDS011;32493;50.514;9.678;2022-12-05T02:32:03;61.47;;;17.75;;
46745;SDS011;32493;50.514;9.678;2022-12-05T02:34:15;40.60;;;16.60;;
46745;SDS011;32493;50.514;9.678;2022-12-05T02:36:35;47.53;;;16.73;;
46745;SDS011;32493;50.514;9.678;2022-12-05T02:38:49;41.60;;;16.20;;
46745;SDS011;32493;50.514;9.678;2022-12-05T02:41:05;44.33;;;16.40;;
46745;SDS011;32493;50.514;9.678;2022-12-05T02:43:19;38.70;;;16.00;;
46745;SDS011;32493;50.514;9.678;2022-12-05T02:45:35;50.58;;;16.80;;
46745;SDS011;32493;50.514;9.678;2022-12-05T02:47:44;53.75;;;17.08;;
46745;SDS011;32493;50.514;9.678;2022-12-05T02:49:53;51.88;;;16.80;;
46745;SDS011;32493;50.514;9.678;2022-12-05T02:52:02;44.35;;;15.98;;
46745;SDS011;32493;50.514;9.678;2022-12-05T02:54:14;41.78;;;16.60;;
46745;SDS011;32493;50.514;9.678;2022-12-05T02:56:22;42.22;;;16.15;;
46745;SDS011;32493;50.514;9.678;2022-12-05T02:58:29;48.58;;;17.13;;
46745;SDS011;32493;50.514;9.678;2022-12-05T03:00:42;45.78;;;16.73;;
46745;SDS011;32493;50.514;9.678;2022-12-05T03:02:52;43.10;;;17.25;;
46745;SDS011;32493;50.514;9.678;2022-12-05T03:05:04;45.75;;;16.38;;
46745;SDS011;32493;50.514;9.678;2022-12-05T03:07:22;47.28;;;16.48;;
46745;SDS011;32493;50.514;9.678;2022-12-05T03:09:33;40.25;;;15.88;;
46745;SDS011;32493;50.514;9.678;2022-12-05T03:11:42;45.78;;;16.90;;
46745;SDS011;32493;50.514;9.678;2022-12-05T03:13:51;40.33;;;16.10;;
46745;SDS011;32493;50.514;9.678;2022-12-05T03:16:04;43.17;;;16.55;;
46745;SDS011;32493;50.514;9.678;2022-12-05T03:18:15;42.15;;;15.55;;
46745;SDS011;32493;50.514;9.678;2022-12-05T03:20:27;37.17;;;15.02;;
46745;SDS011;32493;50.514;9.678;2022-12-05T03:22:37;35.10;;;15.18;;
46745;SDS011;32493;50.514;9.678;2022-12-05T03:24:48;38.28;;;15.98;;
46745;SDS011;32493;50.514;9.678;2022-12-05T03:26:55;42.60;;;15.93;;
46745;SDS011;32493;50.514;9.678;2022-12-05T03:29:14;39.40;;;15.02;;
46745;SDS011;32493;50.514;9.678;2022-12-05T03:33:43;36.00;;;14.57;;
46745;SDS011;32493;50.514;9.678;2022-12-05T03:35:56;38.35;;;15.05;;
46745;SDS011;32493;50.514;9.678;2022-12-05T03:38:06;37.90;;;15.60;;
46745;SDS011;32493;50.514;9.678;2022-12-05T03:40:20;45.50;;;15.90;;
46745;SDS011;32493;50.514;9.678;2022-12-05T03:42:34;38.05;;;16.60;;
46745;SDS011;32493;50.514;9.678;2022-12-05T03:44:43;40.42;;;14.95;;
46745;SDS011;32493;50.514;9.678;2022-12-05T03:46:59;40.60;;;15.02;;
46745;SDS011;32493;50.514;9.678;2022-12-05T03:49:10;43.95;;;16.02;;
46745;SDS011;32493;50.514;9.678;2022-12-05T03:51:22;40.58;;;14.90;;
46745;SDS011;32493;50.514;9.678;2022-12-05T03:53:34;41.42;;;15.25;;
46745;SDS011;32493;50.514;9.678;2022-12-05T03:55:48;49.20;;;16.15;;
46745;SDS011;32493;50.514;9.678;2022-12-05T03:58:05;45.08;;;16.60;;
46745;SDS011;32493;50.514;9.678;2022-12-05T04:00:15;64.40;;;17.17;;
46745;SDS011;32493;50.514;9.678;2022-12-05T04:02:27;55.45;;;17.67;;
46745;SDS011;32493;50.514;9.678;2022-12-05T04:04:47;57.00;;;16.80;;
46745;SDS011;32493;50.514;9.678;2022-12-05T04:06:57;79.00;;;17.65;;
46745;SDS011;32493;50.514;9.678;2022-12-05T04:09:08;53.53;;;16.30;;
46745;SDS011;32493;50.514;9.678;2022-12-05T04:11:20;45.25;;;15.68;;
46745;SDS011;32493;50.514;9.678;2022-12-05T04:13:29;64.97;;;16.58;;
46745;SDS011;32493;50.514;9.678;2022-12-05T04:15:39;50.53;;;15.35;;
46745;SDS011;32493;50.514;9.678;2022-12-05T04:17:59;43.22;;;14.43;;
46745;SDS011;32493;50.514;9.678;2022-12-05T04:22:26;43.65;;;15.10;;
46745;SDS011;32493;50.514;9.678;2022-12-05T04:24:32;53.17;;;15.50;;
46745;SDS011;32493;50.514;9.678;2022-12-05T04:29:02;60.08;;;16.20;;
46745;SDS011;32493;50.514;9.678;2022-12-05T04:31:15;57.67;;;17.13;;
46745;SDS011;32493;50.514;9.678;2022-12-05T04:33:28;43.60;;;16.20;;
46745;SDS011;32493;50.514;9.678;2022-12-05T04:35:42;75.75;;;17.65;;
46745;SDS011;32493;50.514;9.678;2022-12-05T04:37:55;45.40;;;15.68;;
46745;SDS011;32493;50.514;9.678;2022-12-05T04:40:07;50.75;;;16.80;;
46745;SDS011;32493;50.514;9.678;2022-12-05T04:42:18;53.80;;;17.10;;
46745;SDS011;32493;50.514;9.678;2022-12-05T04:44:28;39.40;;;15.73;;
46745;SDS011;32493;50.514;9.678;2022-12-05T04:46:39;41.05;;;15.63;;
46745;SDS011;32493;50.514;9.678;2022-12-05T04:48:54;38.45;;;15.23;;
46745;SDS011;32493;50.514;9.678;2022-12-05T04:51:04;80.15;;;17.80;;
46745;SDS011;32493;50.514;9.678;2022-12-05T04:53:13;49.28;;;15.77;;
46745;SDS011;32493;50.514;9.678;2022-12-05T04:55:21;44.22;;;15.88;;
46745;SDS011;32493;50.514;9.678;2022-12-05T04:57:30;53.60;;;15.70;;
46745;SDS011;32493;50.514;9.678;2022-12-05T04:59:40;39.30;;;15.00;;
46745;SDS011;32493;50.514;9.678;2022-12-05T05:01:47;38.83;;;14.93;;
46745;SDS011;32493;50.514;9.678;2022-12-05T05:04:04;37.55;;;14.63;;
46745;SDS011;32493;50.514;9.678;2022-12-05T05:06:16;40.55;;;14.10;;
46745;SDS011;32493;50.514;9.678;2022-12-05T05:08:22;36.17;;;14.63;;
46745;SDS011;32493;50.514;9.678;2022-12-05T05:10:32;40.60;;;15.60;;
46745;SDS011;32493;50.514;9.678;2022-12-05T05:12:42;54.58;;;16.35;;
46745;SDS011;32493;50.514;9.678;2022-12-05T05:14:48;38.25;;;16.40;;
46745;SDS011;32493;50.514;9.678;2022-12-05T05:16:53;38.13;;;15.00;;
46745;SDS011;32493;50.514;9.678;2022-12-05T05:19:02;40.15;;;14.27;;
46745;SDS011;32493;50.514;9.678;2022-12-05T05:21:12;44.55;;;16.23;;
46745;SDS011;32493;50.514;9.678;2022-12-05T05:23:22;36.22;;;15.23;;
46745;SDS011;32493;50.514;9.678;2022-12-05T05:25:28;36.58;;;15.20;;
46745;SDS011;32493;50.514;9.678;2022-12-05T05:27:33;41.33;;;14.77;;
46745;SDS011;32493;50.514;9.678;2022-12-05T05:29:38;34.00;;;13.73;;
46745;SDS011;32493;50.514;9.678;2022-12-05T05:31:43;39.70;;;14.73;;
46745;SDS011;32493;50.514;9.678;2022-12-05T05:33:49;43.60;;;15.10;;
46745;SDS011;32493;50.514;9.678;2022-12-05T05:35:59;40.33;;;14.85;;
46745;SDS011;32493;50.514;9.678;2022-12-05T05:38:07;44.88;;;14.80;;
46745;SDS011;32493;50.514;9.678;2022-12-05T05:40:12;42.67;;;15.38;;
46745;SDS011;32493;50.514;9.678;2022-12-05T05:42:17;30.92;;;13.65;;
46745;SDS011;32493;50.514;9.678;2022-12-05T05:44:22;44.25;;;14.00;;
46745;SDS011;32493;50.514;9.678;2022-12-05T05:46:28;48.10;;;15.07;;
46745;SDS011;32493;50.514;9.678;2022-12-05T05:48:35;33.28;;;13.70;;
46745;SDS011;32493;50.514;9.678;2022-12-05T05:50:41;39.78;;;14.82;;
46745;SDS011;32493;50.514;9.678;2022-12-05T05:52:48;40.55;;;15.07;;
46745;SDS011;32493;50.514;9.678;2022-12-05T05:54:55;44.00;;;15.48;;
46745;SDS011;32493;50.514;9.678;2022-12-05T05:57:00;40.97;;;15.30;;
46745;SDS011;32493;50.514;9.678;2022-12-05T05:59:05;35.97;;;15.10;;
46745;SDS011;32493;50.514;9.678;2022-12-05T06:01:11;42.45;;;15.27;;
46745;SDS011;32493;50.514;9.678;2022-12-05T06:03:19;42.80;;;14.63;;
46745;SDS011;32493;50.514;9.678;2022-12-05T06:05:24;36.22;;;14.95;;
46745;SDS011;32493;50.514;9.678;2022-12-05T06:07:29;34.78;;;14.43;;
46745;SDS011;32493;50.514;9.678;2022-12-05T06:09:37;39.08;;;14.52;;
46745;SDS011;32493;50.514;9.678;2022-12-05T06:11:43;42.33;;;15.00;;
46745;SDS011;32493;50.514;9.678;2022-12-05T06:13:48;33.78;;;13.63;;
46745;SDS011;32493;50.514;9.678;2022-12-05T06:15:53;28.73;;;13.68;;
46745;SDS011;32493;50.514;9.678;2022-12-05T06:17:58;37.65;;;14.80;;
46745;SDS011;32493;50.514;9.678;2022-12-05T06:20:04;32.60;;;13.20;;
46745;SDS011;32493;50.514;9.678;2022-12-05T06:22:11;44.55;;;14.30;;
46745;SDS011;32493;50.514;9.678;2022-12-05T06:24:16;41.30;;;14.10;;
46745;SDS011;32493;50.514;9.678;2022-12-05T06:26:24;26.83;;;13.23;;
46745;SDS011;32493;50.514;9.678;2022-12-05T06:28:29;27.02;;;12.27;;
46745;SDS011;32493;50.514;9.678;2022-12-05T06:30:36;35.08;;;17.95;;
46745;SDS011;32493;50.514;9.678;2022-12-05T06:32:42;40.17;;;17.77;;
46745;SDS011;32493;50.514;9.678;2022-12-05T06:34:47;30.63;;;16.40;;
46745;SDS011;32493;50.514;9.678;2022-12-05T06:36:52;35.25;;;15.45;;
46745;SDS011;32493;50.514;9.678;2022-12-05T06:38:57;29.10;;;12.93;;
46745;SDS011;32493;50.514;9.678;2022-12-05T06:41:04;23.58;;;11.93;;
46745;SDS011;32493;50.514;9.678;2022-12-05T06:43:12;21.98;;;11.10;;
46745;SDS011;32493;50.514;9.678;2022-12-05T06:45:17;21.65;;;10.63;;
46745;SDS011;32493;50.514;9.678;2022-12-05T06:47:23;25.00;;;10.57;;
46745;SDS011;32493;50.514;9.678;2022-12-05T06:49:29;21.67;;;10.73;;
46745;SDS011;32493;50.514;9.678;2022-12-05T06:51:38;20.80;;;10.65;;
46745;SDS011;32493;50.514;9.678;2022-12-05T06:53:43;18.33;;;10.45;;
46745;SDS011;32493;50.514;9.678;2022-12-05T06:55:55;18.73;;;10.13;;
46745;SDS011;32493;50.514;9.678;2022-12-05T06:58:02;22.60;;;10.55;;
46745;SDS011;32493;50.514;9.678;2022-12-05T07:00:10;20.73;;;10.60;;
46745;SDS011;32493;50.514;9.678;2022-12-05T07:02:30;21.98;;;10.80;;
46745;SDS011;32493;50.514;9.678;2022-12-05T07:04:35;22.15;;;10.95;;
46745;SDS011;32493;50.514;9.678;2022-12-05T07:06:40;24.35;;;12.50;;
46745;SDS011;32493;50.514;9.678;2022-12-05T07:08:51;22.40;;;11.93;;
46745;SDS011;32493;50.514;9.678;2022-12-05T07:10:57;22.88;;;11.20;;
46745;SDS011;32493;50.514;9.678;2022-12-05T07:13:02;29.58;;;11.95;;
46745;SDS011;32493;50.514;9.678;2022-12-05T07:15:12;23.35;;;11.73;;
46745;SDS011;32493;50.514;9.678;2022-12-05T07:17:18;26.63;;;11.85;;
46745;SDS011;32493;50.514;9.678;2022-12-05T07:19:24;26.33;;;12.77;;
46745;SDS011;32493;50.514;9.678;2022-12-05T07:21:29;27.83;;;12.48;;
46745;SDS011;32493;50.514;9.678;2022-12-05T07:23:34;27.92;;;12.57;;
46745;SDS011;32493;50.514;9.678;2022-12-05T07:25:39;25.95;;;12.63;;
46745;SDS011;32493;50.514;9.678;2022-12-05T07:27:44;30.65;;;12.93;;
46745;SDS011;32493;50.514;9.678;2022-12-05T07:29:49;30.27;;;13.70;;
46745;SDS011;32493;50.514;9.678;2022-12-05T07:31:57;35.25;;;12.98;;
46745;SDS011;32493;50.514;9.678;2022-12-05T07:34:02;34.08;;;12.70;;
46745;SDS011;32493;50.514;9.678;2022-12-05T07:36:08;32.42;;;13.02;;
46745;SDS011;32493;50.514;9.678;2022-12-05T07:38:15;27.92;;;12.73;;
46745;SDS011;32493;50.514;9.678;2022-12-05T07:40:21;36.70;;;13.05;;
46745;SDS011;32493;50.514;9.678;2022-12-05T07:42:26;36.53;;;14.55;;
46745;SDS011;32493;50.514;9.678;2022-12-05T07:44:31;37.95;;;14.02;;
46745;SDS011;32493;50.514;9.678;2022-12-05T07:46:36;44.70;;;14.70;;
46745;SDS011;32493;50.514;9.678;2022-12-05T07:48:44;37.67;;;13.63;;
46745;SDS011;32493;50.514;9.678;2022-12-05T07:50:51;34.67;;;14.30;;
46745;SDS011;32493;50.514;9.678;2022-12-05T07:52:56;41.22;;;14.65;;
46745;SDS011;32493;50.514;9.678;2022-12-05T07:55:01;39.78;;;14.05;;
46745;SDS011;32493;50.514;9.678;2022-12-05T07:57:07;44.35;;;15.05;;
46745;SDS011;32493;50.514;9.678;2022-12-05T07:59:12;37.13;;;14.43;;
46745;SDS011;32493;50.514;9.678;2022-12-05T08:01:17;34.78;;;14.10;;
46745;SDS011;32493;50.514;9.678;2022-12-05T08:05:32;37.55;;;14.45;;
46745;SDS011;32493;50.514;9.678;2022-12-05T08:07:38;41.65;;;14.20;;
46745;SDS011;32493;50.514;9.678;2022-12-05T08:09:43;35.63;;;14.13;;
46745;SDS011;32493;50.514;9.678;2022-12-05T08:11:48;30.75;;;13.73;;
46745;SDS011;32493;50.514;9.678;2022-12-05T08:13:53;43.22;;;15.07;;
46745;SDS011;32493;50.514;9.678;2022-12-05T08:16:00;43.55;;;14.73;;
46745;SDS011;32493;50.514;9.678;2022-12-05T08:18:05;44.95;;;15.98;;
46745;SDS011;32493;50.514;9.678;2022-12-05T08:20:11;34.60;;;14.27;;
46745;SDS011;32493;50.514;9.678;2022-12-05T08:22:20;39.35;;;14.65;;
46745;SDS011;32493;50.514;9.678;2022-12-05T08:24:25;41.92;;;14.00;;
46745;SDS011;32493;50.514;9.678;2022-12-05T08:26:30;34.78;;;14.73;;
46745;SDS011;32493;50.514;9.678;2022-12-05T08:28:38;34.47;;;14.30;;
46745;SDS011;32493;50.514;9.678;2022-12-05T08:30:44;36.20;;;14.85;;
46745;SDS011;32493;50.514;9.678;2022-12-05T08:32:50;49.92;;;15.85;;
46745;SDS011;32493;50.514;9.678;2022-12-05T08:34:55;40.85;;;14.85;;
46745;SDS011;32493;50.514;9.678;2022-12-05T08:37:00;45.17;;;14.73;;
46745;SDS011;32493;50.514;9.678;2022-12-05T08:39:09;39.28;;;15.02;;
46745;SDS011;32493;50.514;9.678;2022-12-05T08:41:17;40.55;;;14.57;;
46745;SDS011;32493;50.514;9.678;2022-12-05T08:43:22;38.47;;;15.05;;
46745;SDS011;32493;50.514;9.678;2022-12-05T08:45:27;43.40;;;14.63;;
46745;SDS011;32493;50.514;9.678;2022-12-05T08:47:32;41.78;;;14.18;;
46745;SDS011;32493;50.514;9.678;2022-12-05T08:49:38;43.90;;;14.60;;
46745;SDS011;32493;50.514;9.678;2022-12-05T08:51:43;46.53;;;14.80;;
46745;SDS011;32493;50.514;9.678;2022-12-05T08:53:49;38.55;;;14.40;;
46745;SDS011;32493;50.514;9.678;2022-12-05T08:55:56;40.75;;;13.77;;
46745;SDS011;32493;50.514;9.678;2022-12-05T08:58:04;45.85;;;14.30;;
46745;SDS011;32493;50.514;9.678;2022-12-05T09:00:10;44.58;;;13.77;;
46745;SDS011;32493;50.514;9.678;2022-12-05T09:02:17;50.03;;;15.13;;
46745;SDS011;32493;50.514;9.678;2022-12-05T09:04:22;45.40;;;15.93;;
46745;SDS011;32493;50.514;9.678;2022-12-05T09:06:28;41.40;;;14.30;;
46745;SDS011;32493;50.514;9.678;2022-12-05T09:08:33;45.03;;;15.68;;
46745;SDS011;32493;50.514;9.678;2022-12-05T09:10:39;41.53;;;14.50;;
46745;SDS011;32493;50.514;9.678;2022-12-05T09:12:47;43.22;;;15.25;;
46745;SDS011;32493;50.514;9.678;2022-12-05T09:14:54;42.58;;;14.93;;
46745;SDS011;32493;50.514;9.678;2022-12-05T09:16:59;42.25;;;14.77;;
46745;SDS011;32493;50.514;9.678;2022-12-05T09:19:05;39.58;;;14.82;;
46745;SDS011;32493;50.514;9.678;2022-12-05T09:21:17;44.17;;;15.25;;
46745;SDS011;32493;50.514;9.678;2022-12-05T09:25:28;40.75;;;14.13;;
46745;SDS011;32493;50.514;9.678;2022-12-05T09:27:34;38.67;;;14.27;;
46745;SDS011;32493;50.514;9.678;2022-12-05T09:29:42;38.65;;;14.38;;
46745;SDS011;32493;50.514;9.678;2022-12-05T09:31:47;39.30;;;14.60;;
46745;SDS011;32493;50.514;9.678;2022-12-05T09:33:54;35.45;;;14.18;;
46745;SDS011;32493;50.514;9.678;2022-12-05T09:36:01;43.90;;;15.52;;
46745;SDS011;32493;50.514;9.678;2022-12-05T09:38:08;40.33;;;15.07;;
46745;SDS011;32493;50.514;9.678;2022-12-05T09:40:14;33.17;;;13.63;;
46745;SDS011;32493;50.514;9.678;2022-12-05T09:42:24;31.67;;;12.77;;
46745;SDS011;32493;50.514;9.678;2022-12-05T09:44:47;37.40;;;14.75;;
46745;SDS011;32493;50.514;9.678;2022-12-05T09:47:03;35.05;;;13.32;;
46745;SDS011;32493;50.514;9.678;2022-12-05T09:49:18;32.60;;;14.15;;
46745;SDS011;32493;50.514;9.678;2022-12-05T09:51:24;46.67;;;15.80;;
46745;SDS011;32493;50.514;9.678;2022-12-05T09:53:30;43.50;;;15.50;;
46745;SDS011;32493;50.514;9.678;2022-12-05T09:55:40;37.63;;;14.90;;
46745;SDS011;32493;50.514;9.678;2022-12-05T09:57:50;36.08;;;13.18;;
46745;SDS011;32493;50.514;9.678;2022-12-05T10:00:03;38.47;;;14.50;;
46745;SDS011;32493;50.514;9.678;2022-12-05T10:02:15;39.63;;;14.75;;
46745;SDS011;32493;50.514;9.678;2022-12-05T10:04:45;40.83;;;15.32;;
46745;SDS011;32493;50.514;9.678;2022-12-05T10:07:02;36.63;;;15.35;;
46745;SDS011;32493;50.514;9.678;2022-12-05T10:09:23;36.25;;;15.80;;
46745;SDS011;32493;50.514;9.678;2022-12-05T10:11:49;34.08;;;15.20;;
46745;SDS011;32493;50.514;9.678;2022-12-05T10:14:03;33.28;;;14.77;;
46745;SDS011;32493;50.514;9.678;2022-12-05T10:16:20;28.83;;;13.25;;
46745;SDS011;32493;50.514;9.678;2022-12-05T10:18:35;28.73;;;12.68;;
46745;SDS011;32493;50.514;9.678;2022-12-05T10:20:47;31.88;;;13.77;;
46745;SDS011;32493;50.514;9.678;2022-12-05T10:22:58;33.55;;;14.63;;
46745;SDS011;32493;50.514;9.678;2022-12-05T10:25:28;36.45;;;14.63;;
46745;SDS011;32493;50.514;9.678;2022-12-05T10:27:37;31.10;;;13.48;;
46745;SDS011;32493;50.514;9.678;2022-12-05T10:29:51;34.00;;;14.65;;
46745;SDS011;32493;50.514;9.678;2022-12-05T10:32:06;30.52;;;13.93;;
46745;SDS011;32493;50.514;9.678;2022-12-05T10:34:21;28.38;;;12.68;;
46745;SDS011;32493;50.514;9.678;2022-12-05T10:36:34;25.33;;;12.43;;
46745;SDS011;32493;50.514;9.678;2022-12-05T10:38:40;33.92;;;13.73;;
46745;SDS011;32493;50.514;9.678;2022-12-05T10:40:49;25.55;;;12.57;;
46745;SDS011;32493;50.514;9.678;2022-12-05T10:42:58;26.70;;;12.48;;
46745;SDS011;32493;50.514;9.678;2022-12-05T10:45:04;28.33;;;12.60;;
46745;SDS011;32493;50.514;9.678;2022-12-05T10:47:20;25.77;;;11.93;;
46745;SDS011;32493;50.514;9.678;2022-12-05T10:51:31;23.10;;;10.65;;
46745;SDS011;32493;50.514;9.678;2022-12-05T10:53:39;21.05;;;10.88;;
46745;SDS011;32493;50.514;9.678;2022-12-05T10:58:12;24.73;;;11.40;;
46745;SDS011;32493;50.514;9.678;2022-12-05T11:00:24;21.65;;;10.20;;
46745;SDS011;32493;50.514;9.678;2022-12-05T11:02:36;27.52;;;12.43;;
46745;SDS011;32493;50.514;9.678;2022-12-05T11:04:43;25.60;;;12.80;;
46745;SDS011;32493;50.514;9.678;2022-12-05T11:06:54;26.20;;;13.10;;
46745;SDS011;32493;50.514;9.678;2022-12-05T11:09:03;24.73;;;11.07;;
46745;SDS011;32493;50.514;9.678;2022-12-05T11:11:20;29.33;;;12.40;;
46745;SDS011;32493;50.514;9.678;2022-12-05T11:13:29;23.35;;;10.70;;
46745;SDS011;32493;50.514;9.678;2022-12-05T11:15:37;28.80;;;12.02;;
46745;SDS011;32493;50.514;9.678;2022-12-05T11:18:00;24.27;;;10.77;;
46745;SDS011;32493;50.514;9.678;2022-12-05T11:20:33;22.10;;;8.60;;
46745;SDS011;32493;50.514;9.678;2022-12-05T11:22:42;26.00;;;12.20;;
46745;SDS011;32493;50.514;9.678;2022-12-05T11:24:49;22.08;;;10.77;;
46745;SDS011;32493;50.514;9.678;2022-12-05T11:26:55;21.05;;;9.88;;
46745;SDS011;32493;50.514;9.678;2022-12-05T11:29:02;14.07;;;6.25;;
46745;SDS011;32493;50.514;9.678;2022-12-05T11:31:18;21.70;;;10.27;;
46745;SDS011;32493;50.514;9.678;2022-12-05T11:33:33;21.23;;;10.18;;
46745;SDS011;32493;50.514;9.678;2022-12-05T11:35:39;14.48;;;6.05;;
46745;SDS011;32493;50.514;9.678;2022-12-05T11:37:46;23.42;;;11.35;;
46745;SDS011;32493;50.514;9.678;2022-12-05T11:39:56;25.30;;;11.15;;
46745;SDS011;32493;50.514;9.678;2022-12-05T11:42:12;11.98;;;5.82;;
46745;SDS011;32493;50.514;9.678;2022-12-05T11:44:33;13.10;;;5.97;;
46745;SDS011;32493;50.514;9.678;2022-12-05T11:47:09;19.73;;;9.15;;
46745;SDS011;32493;50.514;9.678;2022-12-05T11:49:34;21.30;;;10.25;;
46745;SDS011;32493;50.514;9.678;2022-12-05T11:52:02;20.73;;;10.00;;
46745;SDS011;32493;50.514;9.678;2022-12-05T11:54:24;23.88;;;10.65;;
46745;SDS011;32493;50.514;9.678;2022-12-05T11:57:07;22.52;;;10.63;;
46745;SDS011;32493;50.514;9.678;2022-12-05T11:59:37;21.20;;;9.10;;
46745;SDS011;32493;50.514;9.678;2022-12-05T12:02:20;23.20;;;11.02;;
46745;SDS011;32493;50.514;9.678;2022-12-05T12:04:51;23.00;;;10.68;;
46745;SDS011;32493;50.514;9.678;2022-12-05T12:07:08;24.02;;;10.40;;
46745;SDS011;32493;50.514;9.678;2022-12-05T12:09:31;19.55;;;9.48;;
46745;SDS011;32493;50.514;9.678;2022-12-05T12:11:49;24.85;;;10.27;;
46745;SDS011;32493;50.514;9.678;2022-12-05T12:14:02;22.88;;;10.15;;
46745;SDS011;32493;50.514;9.678;2022-12-05T12:16:18;19.75;;;9.68;;
46745;SDS011;32493;50.514;9.678;2022-12-05T12:18:46;22.13;;;10.27;;
46745;SDS011;32493;50.514;9.678;2022-12-05T12:21:39;25.98;;;10.32;;
46745;SDS011;32493;50.514;9.678;2022-12-05T12:23:58;22.25;;;11.15;;
46745;SDS011;32493;50.514;9.678;2022-12-05T12:26:18;22.45;;;10.93;;
46745;SDS011;32493;50.514;9.678;2022-12-05T12:28:39;23.45;;;10.90;;
46745;SDS011;32493;50.514;9.678;2022-12-05T12:30:53;26.55;;;11.70;;
46745;SDS011;32493;50.514;9.678;2022-12-05T12:33:22;28.20;;;12.10;;
46745;SDS011;32493;50.514;9.678;2022-12-05T12:35:36;23.35;;;10.13;;
46745;SDS011;32493;50.514;9.678;2022-12-05T12:37:56;22.02;;;11.98;;
46745;SDS011;32493;50.514;9.678;2022-12-05T12:40:33;29.52;;;11.75;;
46745;SDS011;32493;50.514;9.678;2022-12-05T12:42:55;27.13;;;11.50;;
46745;SDS011;32493;50.514;9.678;2022-12-05T12:48:14;26.17;;;13.05;;
46745;SDS011;32493;50.514;9.678;2022-12-05T12:52:57;28.75;;;12.27;;
46745;SDS011;32493;50.514;9.678;2022-12-05T12:55:24;33.08;;;14.10;;
46745;SDS011;32493;50.514;9.678;2022-12-05T13:00:00;32.53;;;13.75;;
46745;SDS011;32493;50.514;9.678;2022-12-05T13:02:17;35.70;;;14.30;;
46745;SDS011;32493;50.514;9.678;2022-12-05T13:04:30;31.63;;;13.57;;
46745;SDS011;32493;50.514;9.678;2022-12-05T13:06:41;29.35;;;12.38;;
46745;SDS011;32493;50.514;9.678;2022-12-05T13:08:56;32.53;;;13.38;;
46745;SDS011;32493;50.514;9.678;2022-12-05T13:11:06;36.85;;;15.02;;
46745;SDS011;32493;50.514;9.678;2022-12-05T13:13:17;41.33;;;15.93;;
46745;SDS011;32493;50.514;9.678;2022-12-05T13:15:30;31.80;;;12.00;;